Canarana, Brazil
Current Conditions -  °F | °C
As of 7:00 PM on Thursday 30 Oct 2014 (Local Time) from SBBW Reporting Station
Broken Clouds Broken Clouds  
Wind Chill: 72°   Ceiling: 7000
Heat Index: 72°   Visibility: 6mi
Dew Point: 70°   Wind: 0mph
Humidity: 94%   Direction: NA
Pressure: 29.88"   Gusts: NA
Location:  13.55°S, 52.27°W
Report Text: SBBW 302200Z 00000KT 9999 FEW015 BKN070 22/21 Q1012
Loading
Personal Weather Stations






























Interactive Weather Map
Tropical Storm Tracking
New forecast layout! Learn more

10-Day Weather Forecast

Advertisements
Track Severe Weather on mobile